Time;durP1;ratioP1;P1;durP2;ratioP2;P2;SDS_P1;SDS_P2;PMS_P1;PMS_P2;Temp;Humidity;BMP_temperature;BMP_pressure;BME280_temperature;BME280_humidity;BME280_pressure;Samples;Min_cycle;Max_cycle;Signal;HPM_P1;HPM_P2
2022/04/23 00:01:42;;;;;;;17.30;12.75;;;;;;;;;;5031506;28;20036;-73
2022/04/23 00:04:08;;;;;;;16.52;12.82;;;;;;;;;;5031495;28;20018;-72
2022/04/23 00:06:34;;;;;;;19.45;12.80;;;;;;;;;;5008145;28;20041;-71
2022/04/23 00:09:00;;;;;;;18.08;13.10;;;;;;;;;;5010275;28;20365;-72
2022/04/23 00:11:26;;;;;;;16.65;12.60;;;;;;;;;;5012225;28;20141;-73
2022/04/23 00:13:52;;;;;;;15.20;12.38;;;;;;;;;;5012191;28;20491;-72
2022/04/23 00:16:19;;;;;;;19.45;12.90;;;;;;;;;;5012374;28;20026;-72
2022/04/23 00:18:45;;;;;;;15.32;12.52;;;;;;;;;;5011172;28;20026;-72
2022/04/23 00:21:11;;;;;;;17.75;13.25;;;;;;;;;;5011827;28;20037;-72
2022/04/23 00:23:37;;;;;;;16.15;13.35;;;;;;;;;;5011985;28;20200;-73
2022/04/23 00:26:03;;;;;;;18.55;13.68;;;;;;;;;;5012261;28;20149;-73
2022/04/23 00:28:29;;;;;;;17.50;12.55;;;;;;;;;;5011417;28;20143;-75
2022/04/23 00:30:55;;;;;;;17.48;12.80;;;;;;;;;;4994090;28;20428;-74
2022/04/23 00:33:21;;;;;;;16.98;12.82;;;;;;;;;;5011759;28;20109;-74
2022/04/23 00:35:49;;;;;;;16.60;12.68;;;;;;;;;;4994153;28;20195;-74
2022/04/23 00:38:16;;;;;;;16.85;13.02;;;;;;;;;;4993577;28;20555;-75
2022/04/23 00:40:43;;;;;;;17.52;12.80;;;;;;;;;;5012468;28;20040;-75
2022/04/23 00:45:54;;;;;;;17.38;12.38;;;;;;;;;;5049699;28;20048;-72
2022/04/23 00:48:21;;;;;;;17.23;13.27;;;;;;;;;;5049335;28;20099;-71
2022/04/23 00:50:48;;;;;;;17.70;13.82;;;;;;;;;;5051562;28;20029;-70
2022/04/23 00:53:15;;;;;;;19.45;14.77;;;;;;;;;;5051218;28;20029;-70
2022/04/23 00:55:41;;;;;;;17.33;12.52;;;;;;;;;;5051377;28;20021;-70
2022/04/23 00:58:07;;;;;;;15.35;11.55;;;;;;;;;;5050530;28;20028;-71
2022/04/23 01:00:33;;;;;;;24.27;13.63;;;;;;;;;;5055310;28;20087;-70
2022/04/23 01:02:59;;;;;;;20.23;13.80;;;;;;;;;;5055310;28;20057;-69
2022/04/23 01:05:26;;;;;;;18.15;14.27;;;;;;;;;;5055435;28;20025;-68
2022/04/23 01:07:52;;;;;;;18.75;13.18;;;;;;;;;;5053616;28;20013;-69
2022/04/23 01:10:19;;;;;;;16.98;13.10;;;;;;;;;;5053826;28;20021;-69
2022/04/23 01:12:45;;;;;;;20.17;14.75;;;;;;;;;;5054720;28;20028;-68
2022/04/23 01:15:13;;;;;;;18.75;13.95;;;;;;;;;;5054889;28;20047;-69
2022/04/23 01:17:40;;;;;;;19.23;12.98;;;;;;;;;;5054150;28;20021;-69
2022/04/23 01:20:10;;;;;;;18.38;13.05;;;;;;;;;;5054774;28;20025;-69
2022/04/23 01:22:37;;;;;;;17.33;13.25;;;;;;;;;;5055101;28;20477;-69
2022/04/23 01:25:06;;;;;;;18.20;12.82;;;;;;;;;;5052974;28;20387;-70
2022/04/23 01:27:32;;;;;;;20.50;13.57;;;;;;;;;;5054302;28;20037;-69
2022/04/23 01:29:58;;;;;;;19.17;13.85;;;;;;;;;;5054761;28;20100;-70
2022/04/23 01:32:25;;;;;;;16.60;12.82;;;;;;;;;;5053065;28;20021;-70
2022/04/23 01:34:51;;;;;;;18.55;14.02;;;;;;;;;;5052854;28;20082;-70
2022/04/23 01:37:17;;;;;;;21.77;15.13;;;;;;;;;;5052310;28;20032;-70
2022/04/23 01:39:44;;;;;;;21.75;14.52;;;;;;;;;;5053975;28;20021;-70
2022/04/23 01:42:10;;;;;;;18.08;13.32;;;;;;;;;;5054543;28;20117;-70
2022/04/23 01:44:36;;;;;;;20.55;14.63;;;;;;;;;;5052414;28;20029;-70
2022/04/23 01:47:03;;;;;;;18.02;14.32;;;;;;;;;;5053821;28;20130;-70
2022/04/23 01:49:28;;;;;;;20.50;14.30;;;;;;;;;;5053982;28;20040;-69
2022/04/23 01:51:55;;;;;;;20.50;14.82;;;;;;;;;;5054118;28;20025;-69
2022/04/23 01:54:21;;;;;;;19.30;14.35;;;;;;;;;;5053567;28;20479;-67
2022/04/23 01:56:47;;;;;;;22.90;15.98;;;;;;;;;;5052481;28;20035;-69
2022/04/23 01:59:13;;;;;;;18.15;14.23;;;;;;;;;;5053035;28;20434;-70
2022/04/23 02:01:40;;;;;;;18.40;14.27;;;;;;;;;;5052283;28;20490;-70
2022/04/23 02:04:06;;;;;;;20.88;15.30;;;;;;;;;;5053608;28;20104;-70
2022/04/23 02:06:33;;;;;;;20.25;15.15;;;;;;;;;;5052396;28;20017;-69
2022/04/23 02:09:00;;;;;;;19.00;14.07;;;;;;;;;;5039064;28;20032;-68
2022/04/23 02:11:26;;;;;;;21.48;15.18;;;;;;;;;;5053457;28;20028;-69
2022/04/23 02:13:52;;;;;;;20.88;15.20;;;;;;;;;;5048545;28;20494;-68
2022/04/23 02:16:18;;;;;;;22.88;16.30;;;;;;;;;;5033377;28;20041;-69
2022/04/23 02:18:45;;;;;;;24.10;16.20;;;;;;;;;;5032526;28;20029;-69
2022/04/23 02:21:11;;;;;;;26.73;17.67;;;;;;;;;;5033317;28;20018;-69
2022/04/23 02:23:37;;;;;;;21.55;15.40;;;;;;;;;;5032959;28;20079;-70
2022/04/23 02:26:04;;;;;;;25.40;15.27;;;;;;;;;;5042175;28;20088;-70
2022/04/23 02:28:30;;;;;;;22.75;15.98;;;;;;;;;;5052274;28;20421;-70
2022/04/23 02:30:56;;;;;;;22.95;16.45;;;;;;;;;;5051769;28;20020;-70
2022/04/23 02:33:22;;;;;;;24.52;17.45;;;;;;;;;;5053044;28;20036;-70
2022/04/23 02:35:50;;;;;;;22.65;16.45;;;;;;;;;;5052925;28;20029;-69
2022/04/23 02:38:17;;;;;;;22.92;16.98;;;;;;;;;;5052197;28;20048;-70
2022/04/23 02:40:43;;;;;;;23.63;16.95;;;;;;;;;;5053248;28;20078;-70
2022/04/23 02:43:12;;;;;;;22.95;16.08;;;;;;;;;;5052806;28;20036;-70
2022/04/23 02:45:38;;;;;;;19.95;15.52;;;;;;;;;;5053124;28;20031;-69
2022/04/23 02:48:04;;;;;;;20.35;14.52;;;;;;;;;;5052172;28;20052;-69
2022/04/23 02:50:31;;;;;;;22.75;15.20;;;;;;;;;;5052806;28;20530;-70
2022/04/23 02:52:58;;;;;;;20.67;15.75;;;;;;;;;;5052765;28;20474;-70
2022/04/23 02:55:25;;;;;;;22.90;16.73;;;;;;;;;;5052715;28;20477;-70
2022/04/23 02:57:51;;;;;;;22.25;15.20;;;;;;;;;;5051867;28;20391;-70
2022/04/23 03:00:18;;;;;;;22.48;16.60;;;;;;;;;;5051386;28;20445;-70
2022/04/23 03:02:44;;;;;;;22.15;16.00;;;;;;;;;;5052400;28;20021;-70
2022/04/23 03:05:11;;;;;;;23.23;15.95;;;;;;;;;;5051084;28;20021;-70
2022/04/23 03:07:37;;;;;;;21.98;15.98;;;;;;;;;;5039903;28;20025;-72
2022/04/23 03:10:04;;;;;;;24.70;16.67;;;;;;;;;;5050845;28;20410;-70
2022/04/23 03:12:30;;;;;;;23.98;15.43;;;;;;;;;;5046696;28;20040;-70
2022/04/23 03:14:56;;;;;;;25.67;17.20;;;;;;;;;;5047522;28;20026;-68
2022/04/23 03:17:22;;;;;;;23.38;16.38;;;;;;;;;;5031578;28;20029;-69
2022/04/23 03:19:48;;;;;;;24.35;15.73;;;;;;;;;;5032208;28;20041;-70
2022/04/23 03:22:17;;;;;;;24.00;16.33;;;;;;;;;;5031660;28;20029;-70
2022/04/23 03:24:44;;;;;;;24.95;16.13;;;;;;;;;;5037743;28;20024;-70
2022/04/23 03:27:10;;;;;;;28.42;18.08;;;;;;;;;;5051438;28;20028;-70
2022/04/23 03:29:36;;;;;;;24.05;17.27;;;;;;;;;;5051850;28;20047;-70
2022/04/23 03:32:03;;;;;;;24.48;16.85;;;;;;;;;;5051876;28;20028;-69
2022/04/23 03:34:29;;;;;;;23.17;16.60;;;;;;;;;;5050963;28;20147;-70
2022/04/23 03:36:55;;;;;;;25.13;16.80;;;;;;;;;;5052003;28;20116;-70
2022/04/23 03:39:20;;;;;;;22.38;15.65;;;;;;;;;;5051262;28;20029;-70
2022/04/23 03:41:46;;;;;;;27.38;18.02;;;;;;;;;;5051769;28;20031;-70
2022/04/23 03:44:12;;;;;;;25.80;17.58;;;;;;;;;;5051677;28;20036;-69
2022/04/23 03:46:38;;;;;;;26.75;16.95;;;;;;;;;;5051639;28;20409;-69
2022/04/23 03:49:07;;;;;;;25.00;16.80;;;;;;;;;;5050904;28;20036;-69
2022/04/23 03:51:33;;;;;;;26.60;17.65;;;;;;;;;;5051964;28;20033;-69
2022/04/23 03:54:00;;;;;;;25.77;16.88;;;;;;;;;;5051721;28;20033;-69
2022/04/23 03:56:26;;;;;;;23.60;16.75;;;;;;;;;;5051681;28;20028;-69
2022/04/23 03:58:52;;;;;;;24.92;17.67;;;;;;;;;;5050609;28;20029;-68
2022/04/23 04:01:18;;;;;;;29.00;18.23;;;;;;;;;;5050127;28;20416;-69
2022/04/23 04:03:44;;;;;;;25.17;18.17;;;;;;;;;;5051692;28;20032;-69
2022/04/23 04:06:10;;;;;;;22.90;16.63;;;;;;;;;;5051393;28;20036;-70
2022/04/23 04:08:36;;;;;;;28.40;17.05;;;;;;;;;;5050801;28;20081;-70
2022/04/23 04:11:02;;;;;;;26.23;17.45;;;;;;;;;;5051786;28;20120;-70
2022/04/23 04:13:28;;;;;;;26.77;17.85;;;;;;;;;;5051596;28;20029;-70
2022/04/23 04:15:54;;;;;;;28.58;17.58;;;;;;;;;;5051617;28;20103;-70
2022/04/23 04:18:21;;;;;;;25.25;17.33;;;;;;;;;;5050736;28;20060;-68
2022/04/23 04:20:53;;;;;;;25.67;17.27;;;;;;;;;;5051542;28;20053;-69
2022/04/23 04:23:20;;;;;;;24.85;17.23;;;;;;;;;;5050090;28;20032;-68
2022/04/23 04:25:47;;;;;;;25.35;17.23;;;;;;;;;;5051424;28;20028;-69
2022/04/23 04:28:13;;;;;;;29.77;17.88;;;;;;;;;;5050591;28;20021;-68
2022/04/23 04:33:24;;;;;;;17.80;12.68;;;;;;;;;;5051805;28;20102;-69
2022/04/23 04:35:50;;;;;;;15.60;11.63;;;;;;;;;;5055550;28;20475;-71
2022/04/23 04:38:16;;;;;;;16.40;11.05;;;;;;;;;;5054535;28;20555;-69
2022/04/23 04:40:41;;;;;;;13.75;10.20;;;;;;;;;;5055326;28;20021;-71
2022/04/23 04:43:07;;;;;;;13.82;10.43;;;;;;;;;;5055342;28;20043;-69
2022/04/23 04:45:33;;;;;;;13.25;9.82;;;;;;;;;;5055856;28;20172;-70
2022/04/23 04:47:59;;;;;;;15.05;11.05;;;;;;;;;;5053436;28;20439;-69
2022/04/23 04:50:25;;;;;;;14.43;11.02;;;;;;;;;;5054993;28;20025;-70
2022/04/23 04:52:51;;;;;;;12.85;9.27;;;;;;;;;;5055112;28;20179;-70
2022/04/23 04:55:17;;;;;;;18.95;12.27;;;;;;;;;;5054865;28;20467;-70
2022/04/23 04:57:43;;;;;;;14.32;10.68;;;;;;;;;;5054120;28;20025;-70
2022/04/23 05:00:10;;;;;;;16.90;12.75;;;;;;;;;;5055300;28;20028;-71
2022/04/23 05:02:36;;;;;;;15.10;11.80;;;;;;;;;;5055010;28;20036;-71
2022/04/23 05:05:02;;;;;;;14.98;11.40;;;;;;;;;;5053487;28;20017;-71
2022/04/23 05:07:28;;;;;;;17.05;13.27;;;;;;;;;;5054002;28;20029;-70
2022/04/23 05:09:53;;;;;;;19.30;13.25;;;;;;;;;;5054706;28;20390;-70
2022/04/23 05:12:19;;;;;;;16.85;13.40;;;;;;;;;;5052880;28;20040;-70
2022/04/23 05:14:45;;;;;;;16.30;12.52;;;;;;;;;;5049409;28;20083;-68
2022/04/23 05:17:11;;;;;;;15.18;11.55;;;;;;;;;;5044093;28;20030;-70
2022/04/23 05:19:37;;;;;;;14.32;11.75;;;;;;;;;;5051066;28;20049;-70
2022/04/23 05:22:03;;;;;;;14.15;11.38;;;;;;;;;;5045136;28;20475;-70
2022/04/23 05:24:29;;;;;;;15.05;11.75;;;;;;;;;;5031007;28;20034;-69
2022/04/23 05:26:55;;;;;;;14.88;12.13;;;;;;;;;;5032578;28;20498;-71
2022/04/23 05:29:21;;;;;;;14.07;10.65;;;;;;;;;;5047275;28;20033;-71
2022/04/23 05:31:47;;;;;;;13.98;10.68;;;;;;;;;;5052867;28;20025;-70
2022/04/23 05:34:13;;;;;;;12.20;10.63;;;;;;;;;;5039435;28;20078;-73
2022/04/23 05:36:39;;;;;;;15.13;12.38;;;;;;;;;;5052759;28;20505;-72
2022/04/23 05:39:05;;;;;;;14.40;12.35;;;;;;;;;;5045824;28;20108;-69
2022/04/23 05:41:31;;;;;;;15.98;13.00;;;;;;;;;;5049482;28;20067;-69
2022/04/23 05:43:58;;;;;;;14.02;12.38;;;;;;;;;;5053359;28;20103;-70
2022/04/23 05:46:24;;;;;;;14.88;12.52;;;;;;;;;;5053753;28;20017;-71
2022/04/23 05:48:50;;;;;;;15.73;12.00;;;;;;;;;;5053330;28;20029;-71
2022/04/23 05:51:16;;;;;;;15.63;12.23;;;;;;;;;;5053945;28;20025;-71
2022/04/23 05:53:43;;;;;;;16.30;12.57;;;;;;;;;;5053840;28;20028;-70
2022/04/23 05:56:08;;;;;;;17.63;12.25;;;;;;;;;;5053368;28;20035;-70
2022/04/23 05:58:36;;;;;;;13.60;11.50;;;;;;;;;;5053303;28;20037;-71
2022/04/23 06:01:02;;;;;;;13.77;11.20;;;;;;;;;;5053668;28;20051;-72
2022/04/23 06:03:28;;;;;;;13.05;10.90;;;;;;;;;;5053606;28;20029;-73
2022/04/23 06:05:54;;;;;;;12.00;10.02;;;;;;;;;;5053391;28;20082;-70
2022/04/23 06:08:20;;;;;;;13.65;11.05;;;;;;;;;;5052808;28;20025;-72
2022/04/23 06:10:46;;;;;;;12.60;10.05;;;;;;;;;;5044429;28;20024;-74
2022/04/23 06:13:13;;;;;;;11.68;9.48;;;;;;;;;;5036413;28;20120;-73
2022/04/23 06:15:39;;;;;;;10.77;9.50;;;;;;;;;;5051424;28;20096;-72
2022/04/23 06:18:05;;;;;;;12.50;8.93;;;;;;;;;;5041846;28;20033;-73
2022/04/23 06:20:31;;;;;;;12.70;9.10;;;;;;;;;;5050127;28;20040;-73
2022/04/23 06:22:57;;;;;;;10.82;8.48;;;;;;;;;;5049865;28;20112;-72
2022/04/23 06:25:23;;;;;;;10.35;8.85;;;;;;;;;;5050099;28;20028;-73
2022/04/23 06:27:50;;;;;;;9.80;8.02;;;;;;;;;;5049828;28;20029;-72
2022/04/23 06:30:16;;;;;;;12.88;7.72;;;;;;;;;;5052923;28;20017;-73
2022/04/23 06:32:42;;;;;;;9.35;7.95;;;;;;;;;;5051789;28;20115;-72
2022/04/23 06:35:08;;;;;;;9.23;8.20;;;;;;;;;;5051469;28;20028;-72
2022/04/23 06:37:38;;;;;;;9.65;8.27;;;;;;;;;;5052233;28;20049;-72
2022/04/23 06:40:05;;;;;;;9.38;8.23;;;;;;;;;;5052754;28;20498;-72
2022/04/23 06:42:30;;;;;;;8.73;7.72;;;;;;;;;;5052247;28;20025;-72
2022/04/23 06:44:56;;;;;;;8.85;7.68;;;;;;;;;;5078965;23;20526;-77
2022/04/23 06:47:22;;;;;;;9.48;7.90;;;;;;;;;;5014475;28;20889;-77
2022/04/23 06:49:48;;;;;;;10.07;8.02;;;;;;;;;;5032767;28;20041;-76
2022/04/23 06:52:14;;;;;;;11.77;7.65;;;;;;;;;;5032961;28;20029;-76
2022/04/23 06:54:40;;;;;;;8.85;7.07;;;;;;;;;;5033251;28;20029;-76
2022/04/23 06:57:06;;;;;;;9.43;7.00;;;;;;;;;;5013681;28;20033;-77
2022/04/23 06:59:33;;;;;;;9.45;7.25;;;;;;;;;;5013665;28;20025;-77
2022/04/23 07:02:02;;;;;;;8.70;6.75;;;;;;;;;;5014198;28;20113;-76
2022/04/23 07:04:28;;;;;;;7.60;6.78;;;;;;;;;;5011966;28;20066;-76
2022/04/23 07:06:54;;;;;;;7.60;6.80;;;;;;;;;;5030233;28;20029;-77
2022/04/23 07:09:20;;;;;;;8.38;6.45;;;;;;;;;;5018637;28;20051;-77
2022/04/23 07:11:47;;;;;;;7.78;6.20;;;;;;;;;;5023553;28;20076;-77
2022/04/23 07:14:13;;;;;;;7.13;6.35;;;;;;;;;;5026740;28;20033;-77
2022/04/23 07:16:40;;;;;;;7.03;6.25;;;;;;;;;;4999196;28;20029;-76
2022/04/23 07:19:07;;;;;;;9.07;6.75;;;;;;;;;;5028026;28;20028;-75
2022/04/23 07:21:34;;;;;;;9.00;6.45;;;;;;;;;;5002834;28;20030;-75
2022/04/23 07:24:03;;;;;;;8.25;6.28;;;;;;;;;;5021199;28;20109;-75
2022/04/23 07:26:31;;;;;;;7.35;5.68;;;;;;;;;;5028453;28;20017;-76
2022/04/23 07:28:57;;;;;;;6.55;4.90;;;;;;;;;;4998049;28;20083;-76
2022/04/23 07:31:24;;;;;;;6.68;5.45;;;;;;;;;;5026615;28;20353;-77
2022/04/23 07:39:19;;;;;;;5.00;4.50;;;;;;;;;;5017630;28;20033;-76
2022/04/23 07:41:45;;;;;;;5.20;4.53;;;;;;;;;;5022968;28;20038;-77
2022/04/23 07:44:11;;;;;;;4.57;4.05;;;;;;;;;;5024821;28;20406;-77
2022/04/23 07:46:39;;;;;;;5.63;4.38;;;;;;;;;;5015867;28;20026;-76
2022/04/23 07:49:05;;;;;;;4.30;3.88;;;;;;;;;;5032167;28;20032;-76
2022/04/23 07:51:30;;;;;;;5.88;4.47;;;;;;;;;;5007544;28;20026;-77
2022/04/23 07:53:56;;;;;;;5.10;3.72;;;;;;;;;;5023484;28;20039;-76
2022/04/23 07:56:23;;;;;;;4.55;3.53;;;;;;;;;;5018507;28;20509;-76
2022/04/23 07:58:49;;;;;;;4.82;3.78;;;;;;;;;;5035416;28;20036;-76
2022/04/23 08:01:15;;;;;;;5.10;4.00;;;;;;;;;;5026274;28;20025;-77
2022/04/23 08:03:41;;;;;;;4.03;3.63;;;;;;;;;;5031410;28;20033;-76
2022/04/23 08:06:10;;;;;;;4.10;3.38;;;;;;;;;;5034983;28;20026;-76
2022/04/23 08:08:35;;;;;;;6.00;3.25;;;;;;;;;;5020295;28;20030;-75
2022/04/23 08:11:01;;;;;;;3.83;3.10;;;;;;;;;;5029533;28;20032;-76
2022/04/23 08:13:28;;;;;;;3.03;2.80;;;;;;;;;;5020070;28;20037;-76
2022/04/23 08:15:54;;;;;;;3.10;2.80;;;;;;;;;;5033189;28;20029;-76
2022/04/23 08:18:20;;;;;;;3.60;2.65;;;;;;;;;;5003569;28;20095;-77
2022/04/23 08:20:46;;;;;;;7.25;2.78;;;;;;;;;;5023432;28;20053;-77
2022/04/23 08:23:12;;;;;;;2.97;2.35;;;;;;;;;;5034804;28;20029;-77
2022/04/23 08:25:38;;;;;;;2.42;2.22;;;;;;;;;;5010205;28;20083;-77
2022/04/23 08:30:49;;;;;;;4.68;2.88;;;;;;;;;;5023671;28;20092;-77
2022/04/23 08:33:14;;;;;;;2.47;2.28;;;;;;;;;;5023232;28;20029;-75
2022/04/23 08:35:41;;;;;;;4.97;2.97;;;;;;;;;;5007604;28;20026;-76
2022/04/23 08:38:07;;;;;;;6.93;2.50;;;;;;;;;;5031191;28;20026;-77
2022/04/23 08:40:40;;;;;;;3.92;3.13;;;;;;;;;;5023740;28;20075;-76
2022/04/23 08:43:06;;;;;;;3.25;2.55;;;;;;;;;;5017537;28;20022;-78
2022/04/23 08:45:33;;;;;;;4.45;2.58;;;;;;;;;;5012104;28;20057;-77
2022/04/23 08:48:00;;;;;;;3.28;2.58;;;;;;;;;;5021087;28;20057;-77
2022/04/23 08:50:26;;;;;;;2.85;2.45;;;;;;;;;;5014311;28;20026;-77
2022/04/23 08:52:54;;;;;;;2.50;2.30;;;;;;;;;;5031751;28;20095;-76
2022/04/23 08:55:20;;;;;;;2.95;2.60;;;;;;;;;;5032363;28;20497;-79
2022/04/23 08:57:47;;;;;;;3.45;2.65;;;;;;;;;;5031590;28;20034;-79
2022/04/23 09:00:14;;;;;;;3.95;2.78;;;;;;;;;;5032006;28;20491;-77
2022/04/23 09:02:41;;;;;;;3.25;2.80;;;;;;;;;;5031688;28;20390;-76
2022/04/23 09:05:08;;;;;;;3.40;2.95;;;;;;;;;;5031394;28;20033;-77
2022/04/23 09:07:34;;;;;;;3.47;2.80;;;;;;;;;;5031049;28;20026;-76
2022/04/23 09:10:00;;;;;;;2.92;2.30;;;;;;;;;;5025673;28;20026;-77
2022/04/23 09:12:27;;;;;;;2.67;2.35;;;;;;;;;;5020131;28;20026;-77
2022/04/23 09:14:55;;;;;;;2.67;2.47;;;;;;;;;;5013569;28;20460;-77
2022/04/23 09:25:47;;;;;;;2.88;2.58;;;;;;;;;;5038686;28;20032;-77
2022/04/23 09:28:29;;;;;;;2.58;2.33;;;;;;;;;;5025314;28;20096;-77
2022/04/23 09:30:56;;;;;;;2.92;2.63;;;;;;;;;;5016335;28;20026;-75
2022/04/23 09:33:29;;;;;;;2.80;2.45;;;;;;;;;;5015330;28;20101;-76
2022/04/23 09:35:55;;;;;;;2.95;2.58;;;;;;;;;;5015715;28;20038;-76
2022/04/23 09:38:21;;;;;;;5.05;2.58;;;;;;;;;;5014638;28;20062;-77
2022/04/23 09:41:19;;;;;;;3.95;2.88;;;;;;;;;;5015397;28;20030;-77
2022/04/23 09:43:46;;;;;;;2.55;2.22;;;;;;;;;;5015193;28;20033;-76
2022/04/23 09:46:12;;;;;;;3.90;2.40;;;;;;;;;;5015561;28;20029;-76
2022/04/23 09:48:39;;;;;;;3.08;1.95;;;;;;;;;;5029074;28;20026;-76
2022/04/23 09:51:06;;;;;;;1.75;1.42;;;;;;;;;;5037291;28;20033;-77
2022/04/23 09:53:32;;;;;;;2.13;1.92;;;;;;;;;;5033389;28;20104;-76
2022/04/23 09:55:59;;;;;;;2.38;2.17;;;;;;;;;;5028853;28;20097;-76
2022/04/23 09:58:26;;;;;;;3.63;2.75;;;;;;;;;;5035169;28;20381;-77
2022/04/23 10:00:52;;;;;;;2.53;2.25;;;;;;;;;;5036414;28;20060;-77
2022/04/23 10:03:18;;;;;;;3.92;3.20;;;;;;;;;;5026536;28;20045;-78
2022/04/23 10:05:48;;;;;;;3.17;2.75;;;;;;;;;;5016909;28;20025;-77
2022/04/23 10:08:15;;;;;;;3.13;2.60;;;;;;;;;;5027071;28;20056;-77
2022/04/23 10:10:45;;;;;;;3.17;2.60;;;;;;;;;;5037168;28;20030;-77
2022/04/23 10:13:12;;;;;;;6.43;3.05;;;;;;;;;;5036920;28;20033;-77
2022/04/23 10:15:46;;;;;;;3.80;3.08;;;;;;;;;;5037249;28;20018;-77
2022/04/23 10:18:12;;;;;;;3.20;2.88;;;;;;;;;;5034947;28;20013;-78
2022/04/23 10:20:53;;;;;;;2.92;2.63;;;;;;;;;;5027474;28;20026;-77
2022/04/23 10:23:31;;;;;;;3.35;2.95;;;;;;;;;;5025053;28;21877;-77
2022/04/23 10:26:07;;;;;;;4.75;3.20;;;;;;;;;;5035021;28;20479;-76
2022/04/23 10:28:33;;;;;;;5.50;3.22;;;;;;;;;;5034783;28;20041;-77
2022/04/23 10:31:15;;;;;;;3.28;2.92;;;;;;;;;;5035251;28;20448;-77
2022/04/23 10:33:46;;;;;;;3.78;3.25;;;;;;;;;;4997876;28;20525;-76
2022/04/23 10:36:13;;;;;;;3.78;2.95;;;;;;;;;;5014614;28;20025;-77
2022/04/23 10:38:40;;;;;;;3.15;2.67;;;;;;;;;;5015131;28;20021;-76
2022/04/23 10:41:06;;;;;;;3.38;2.58;;;;;;;;;;5015765;28;20373;-76
2022/04/23 10:43:32;;;;;;;4.75;2.92;;;;;;;;;;5032014;28;20053;-76
2022/04/23 10:46:00;;;;;;;3.50;2.58;;;;;;;;;;5038587;28;20041;-77
2022/04/23 10:48:30;;;;;;;4.15;3.08;;;;;;;;;;5016082;28;20057;-76
2022/04/23 10:51:21;;;;;;;3.95;2.38;;;;;;;;;;5017692;28;20021;-77
2022/04/23 10:53:47;;;;;;;3.95;2.30;;;;;;;;;;5033919;28;20029;-77
2022/04/23 10:56:15;;;;;;;2.85;2.53;;;;;;;;;;5029884;28;20022;-77
2022/04/23 10:58:41;;;;;;;3.10;2.80;;;;;;;;;;4995157;28;20029;-77
2022/04/23 11:01:29;;;;;;;2.92;2.58;;;;;;;;;;5013254;28;20503;-76
2022/04/23 11:03:56;;;;;;;3.45;2.72;;;;;;;;;;5013582;28;20061;-77
2022/04/23 11:12:30;;;;;;;3.20;2.88;;;;;;;;;;5013946;28;20153;-76
2022/04/23 11:14:57;;;;;;;3.50;2.63;;;;;;;;;;5010154;28;20528;-77
2022/04/23 11:17:24;;;;;;;2.72;2.35;;;;;;;;;;5012355;28;20442;-76
2022/04/23 11:19:53;;;;;;;2.70;2.33;;;;;;;;;;5013456;28;20033;-77
2022/04/23 11:22:23;;;;;;;2.63;2.17;;;;;;;;;;5013040;28;20065;-76
2022/04/23 11:24:49;;;;;;;2.05;1.83;;;;;;;;;;5013152;28;20029;-77
2022/04/23 11:27:29;;;;;;;2.70;2.20;;;;;;;;;;5012587;28;20026;-76
2022/04/23 11:29:55;;;;;;;2.80;2.10;;;;;;;;;;4995607;28;20036;-76
2022/04/23 11:32:27;;;;;;;2.72;2.53;;;;;;;;;;5012872;28;20101;-76
2022/04/23 11:34:57;;;;;;;3.35;3.03;;;;;;;;;;5012645;28;20116;-76
2022/04/23 11:37:29;;;;;;;5.53;3.13;;;;;;;;;;5012302;28;20036;-75
2022/04/23 11:40:05;;;;;;;3.33;3.00;;;;;;;;;;5012520;28;20048;-75
2022/04/23 11:42:41;;;;;;;2.97;2.67;;;;;;;;;;5012136;28;20546;-77
2022/04/23 11:45:08;;;;;;;4.82;2.75;;;;;;;;;;4994771;28;20037;-78
2022/04/23 11:47:34;;;;;;;3.58;3.20;;;;;;;;;;5000594;28;20024;-78
2022/04/23 11:50:17;;;;;;;5.03;3.17;;;;;;;;;;5010268;28;20140;-77
2022/04/23 11:52:44;;;;;;;3.42;2.80;;;;;;;;;;5032425;28;20049;-76
2022/04/23 11:55:24;;;;;;;5.90;3.63;;;;;;;;;;5021307;28;20030;-76
2022/04/23 11:57:57;;;;;;;4.18;2.90;;;;;;;;;;5011820;28;20038;-77
2022/04/23 12:00:24;;;;;;;4.75;3.20;;;;;;;;;;5011196;28;20065;-77
2022/04/23 12:02:50;;;;;;;2.83;2.63;;;;;;;;;;5012763;28;20030;-77
2022/04/23 12:05:28;;;;;;;4.00;3.10;;;;;;;;;;5012691;28;20049;-77
2022/04/23 12:07:54;;;;;;;3.17;2.88;;;;;;;;;;5029347;28;20013;-77
2022/04/23 12:10:24;;;;;;;3.38;3.08;;;;;;;;;;5034658;28;20105;-77
2022/04/23 12:12:51;;;;;;;4.32;3.47;;;;;;;;;;5032281;28;20056;-77
2022/04/23 12:15:17;;;;;;;3.10;2.80;;;;;;;;;;5032648;28;20026;-77
2022/04/23 12:17:45;;;;;;;3.53;2.92;;;;;;;;;;5032352;28;20021;-77
2022/04/23 12:20:12;;;;;;;5.07;3.20;;;;;;;;;;5034218;28;20535;-77
2022/04/23 12:22:38;;;;;;;4.13;3.00;;;;;;;;;;5032535;28;20525;-77
2022/04/23 12:25:10;;;;;;;3.30;2.90;;;;;;;;;;5032602;28;20053;-77
2022/04/23 12:27:52;;;;;;;3.55;3.25;;;;;;;;;;5031958;28;20026;-77
2022/04/23 12:41:57;;;;;;;4.32;3.30;;;;;;;;;;5032211;28;20071;-77
2022/04/23 12:44:23;;;;;;;6.47;3.60;;;;;;;;;;5047709;22;20030;-71
2022/04/23 12:46:56;;;;;;;3.33;3.03;;;;;;;;;;5029412;28;20041;-72
2022/04/23 12:49:22;;;;;;;4.80;3.50;;;;;;;;;;5010144;28;20110;-72
2022/04/23 12:51:52;;;;;;;3.10;2.90;;;;;;;;;;5011246;28;20089;-72
2022/04/23 12:54:21;;;;;;;3.63;2.85;;;;;;;;;;5011813;28;20400;-72
2022/04/23 12:56:47;;;;;;;3.90;3.30;;;;;;;;;;5015909;28;20118;-71
2022/04/23 12:59:13;;;;;;;4.38;2.90;;;;;;;;;;5014726;28;20159;-72
2022/04/23 13:01:39;;;;;;;3.50;3.17;;;;;;;;;;5015035;28;20030;-72
2022/04/23 13:04:09;;;;;;;4.45;3.50;;;;;;;;;;5014956;28;20097;-72
2022/04/23 13:09:21;;;;;;;4.13;3.25;;;;;;;;;;5014290;28;20037;-72
2022/04/23 13:11:47;;;;;;;5.38;3.20;;;;;;;;;;5015297;28;20373;-72
2022/04/23 13:14:15;;;;;;;4.07;3.67;;;;;;;;;;4997786;28;20029;-72
2022/04/23 13:16:43;;;;;;;5.63;3.70;;;;;;;;;;5016556;28;20030;-72
2022/04/23 13:19:09;;;;;;;6.40;3.90;;;;;;;;;;5028182;28;20022;-73
2022/04/23 13:21:36;;;;;;;6.28;3.45;;;;;;;;;;5026861;28;20055;-74
2022/04/23 13:24:02;;;;;;;3.88;3.20;;;;;;;;;;5034743;28;20064;-72
2022/04/23 13:26:29;;;;;;;4.63;3.83;;;;;;;;;;5014524;28;20032;-74
2022/04/23 13:28:55;;;;;;;3.65;3.35;;;;;;;;;;5027491;28;20018;-70
2022/04/23 13:31:21;;;;;;;4.03;3.50;;;;;;;;;;5028552;28;20014;-72
2022/04/23 13:33:47;;;;;;;6.30;4.68;;;;;;;;;;4999088;28;20092;-72
2022/04/23 13:36:14;;;;;;;8.90;6.35;;;;;;;;;;4997734;28;20503;-71
2022/04/23 13:38:40;;;;;;;91.65;53.55;;;;;;;;;;5003611;28;20030;-72
2022/04/23 13:41:08;;;;;;;13.95;8.85;;;;;;;;;;5021151;28;20057;-73
2022/04/23 13:43:34;;;;;;;4.25;3.28;;;;;;;;;;5031067;28;20030;-72
2022/04/23 13:46:00;;;;;;;5.28;3.28;;;;;;;;;;5033465;28;20033;-74
2022/04/23 13:48:27;;;;;;;3.42;3.13;;;;;;;;;;5007532;28;20072;-71
2022/04/23 13:50:53;;;;;;;5.38;3.20;;;;;;;;;;4996387;28;20021;-74
2022/04/23 13:53:19;;;;;;;5.50;4.43;;;;;;;;;;5014264;28;20029;-71
2022/04/23 13:55:45;;;;;;;3.50;3.08;;;;;;;;;;5017139;28;20022;-74
2022/04/23 13:58:11;;;;;;;3.75;3.22;;;;;;;;;;5030139;28;20063;-72
2022/04/23 14:00:37;;;;;;;3.70;2.88;;;;;;;;;;5033378;28;20479;-74
2022/04/23 14:11:17;;;;;;;3.00;2.80;;;;;;;;;;5033607;28;20037;-70
2022/04/23 14:13:43;;;;;;;3.50;2.88;;;;;;;;;;5033918;28;20025;-73
2022/04/23 14:16:09;;;;;;;5.75;3.00;;;;;;;;;;5014791;28;20065;-73
2022/04/23 14:18:37;;;;;;;5.18;3.05;;;;;;;;;;5012950;28;20026;-74
2022/04/23 14:21:03;;;;;;;4.25;3.33;;;;;;;;;;5030927;28;20049;-73
2022/04/23 14:23:29;;;;;;;4.30;3.70;;;;;;;;;;5010525;28;20092;-72
2022/04/23 14:25:55;;;;;;;3.25;2.95;;;;;;;;;;5010479;28;20014;-73
2022/04/23 14:28:21;;;;;;;3.40;2.80;;;;;;;;;;5013972;28;20105;-74
2022/04/23 14:30:47;;;;;;;3.10;2.78;;;;;;;;;;5012409;28;20052;-73
2022/04/23 14:33:13;;;;;;;4.13;3.50;;;;;;;;;;5013233;28;20037;-72
2022/04/23 14:35:39;;;;;;;4.15;3.10;;;;;;;;;;5014405;28;20064;-72
2022/04/23 14:38:05;;;;;;;4.45;2.95;;;;;;;;;;5033086;28;20021;-72
2022/04/23 14:40:31;;;;;;;4.63;3.10;;;;;;;;;;5016343;28;20022;-72
2022/04/23 14:43:00;;;;;;;3.75;3.28;;;;;;;;;;5015825;28;20076;-73
2022/04/23 14:45:28;;;;;;;4.10;3.70;;;;;;;;;;5033250;28;20032;-74
2022/04/23 14:47:54;;;;;;;6.10;3.83;;;;;;;;;;5032806;28;20036;-73
2022/04/23 14:50:20;;;;;;;4.75;3.58;;;;;;;;;;5033350;28;20021;-74
2022/04/23 14:55:31;;;;;;;4.57;3.60;;;;;;;;;;5033611;28;20040;-72
2022/04/23 14:57:57;;;;;;;2.83;2.55;;;;;;;;;;5014120;28;20032;-73
2022/04/23 15:00:23;;;;;;;3.30;3.00;;;;;;;;;;5013070;28;20113;-73
2022/04/23 15:02:53;;;;;;;3.65;3.10;;;;;;;;;;5016901;28;20069;-73
2022/04/23 15:05:19;;;;;;;4.32;3.70;;;;;;;;;;5014219;28;20026;-73
2022/04/23 15:07:46;;;;;;;4.50;3.72;;;;;;;;;;5013540;28;20022;-73
2022/04/23 15:10:12;;;;;;;4.03;3.55;;;;;;;;;;5013856;28;20480;-74
2022/04/23 15:12:38;;;;;;;5.15;4.03;;;;;;;;;;5013607;28;20059;-74
2022/04/23 15:15:04;;;;;;;4.28;3.88;;;;;;;;;;5012652;28;20096;-73
2022/04/23 15:17:31;;;;;;;4.07;3.67;;;;;;;;;;5015244;28;20029;-73
2022/04/23 15:19:57;;;;;;;3.78;3.47;;;;;;;;;;5030059;28;20017;-73
2022/04/23 15:22:23;;;;;;;6.30;4.25;;;;;;;;;;5033859;28;20026;-73
2022/04/23 15:24:49;;;;;;;6.32;4.35;;;;;;;;;;5033571;28;20541;-72